sensor_id;sensor_type;location;lat;lon;timestamp;temperature;humidity
2200;DHT22;1106;48.762;9.168;2022-09-25T00:01:27;13.60;97.10
2200;DHT22;1106;48.762;9.168;2022-09-25T00:03:54;13.60;97.30
2200;DHT22;1106;48.762;9.168;2022-09-25T00:06:22;13.50;97.40
2200;DHT22;1106;48.762;9.168;2022-09-25T00:08:50;13.60;97.50
2200;DHT22;1106;48.762;9.168;2022-09-25T00:11:19;13.60;97.40
2200;DHT22;1106;48.762;9.168;2022-09-25T00:13:48;13.60;97.40
2200;DHT22;1106;48.762;9.168;2022-09-25T00:16:17;13.50;97.50
2200;DHT22;1106;48.762;9.168;2022-09-25T00:18:44;13.50;97.50
2200;DHT22;1106;48.762;9.168;2022-09-25T00:21:30;13.50;97.50
2200;DHT22;1106;48.762;9.168;2022-09-25T00:23:58;13.50;97.30
2200;DHT22;1106;48.762;9.168;2022-09-25T00:26:27;13.50;97.10
2200;DHT22;1106;48.762;9.168;2022-09-25T00:28:56;13.40;97.30
2200;DHT22;1106;48.762;9.168;2022-09-25T00:31:23;13.40;97.60
2200;DHT22;1106;48.762;9.168;2022-09-25T00:33:50;13.40;97.70
2200;DHT22;1106;48.762;9.168;2022-09-25T00:36:17;13.40;97.80
2200;DHT22;1106;48.762;9.168;2022-09-25T00:38:44;13.40;97.70
2200;DHT22;1106;48.762;9.168;2022-09-25T00:41:15;13.40;97.70
2200;DHT22;1106;48.762;9.168;2022-09-25T00:43:44;13.40;97.70
2200;DHT22;1106;48.762;9.168;2022-09-25T00:46:17;13.40;97.60
2200;DHT22;1106;48.762;9.168;2022-09-25T00:48:48;13.40;97.60
2200;DHT22;1106;48.762;9.168;2022-09-25T00:51:20;13.40;97.50
2200;DHT22;1106;48.762;9.168;2022-09-25T00:53:48;13.40;97.50
2200;DHT22;1106;48.762;9.168;2022-09-25T00:56:15;13.40;97.40
2200;DHT22;1106;48.762;9.168;2022-09-25T00:58:42;13.40;97.40
2200;DHT22;1106;48.762;9.168;2022-09-25T01:01:09;13.50;97.20
2200;DHT22;1106;48.762;9.168;2022-09-25T01:03:39;13.50;97.00
2200;DHT22;1106;48.762;9.168;2022-09-25T01:06:12;13.50;96.70
2200;DHT22;1106;48.762;9.168;2022-09-25T01:08:40;13.40;97.00
2200;DHT22;1106;48.762;9.168;2022-09-25T01:11:07;13.30;97.20
2200;DHT22;1106;48.762;9.168;2022-09-25T01:13:35;13.30;97.40
2200;DHT22;1106;48.762;9.168;2022-09-25T01:16:07;13.30;97.50
2200;DHT22;1106;48.762;9.168;2022-09-25T01:18:54;13.30;97.80
2200;DHT22;1106;48.762;9.168;2022-09-25T01:21:30;13.30;97.70
2200;DHT22;1106;48.762;9.168;2022-09-25T01:24:22;13.30;97.50
2200;DHT22;1106;48.762;9.168;2022-09-25T01:27:36;13.30;97.70
2200;DHT22;1106;48.762;9.168;2022-09-25T01:30:09;13.30;97.70
2200;DHT22;1106;48.762;9.168;2022-09-25T01:32:44;13.30;97.70
2200;DHT22;1106;48.762;9.168;2022-09-25T01:35:22;13.40;97.80
2200;DHT22;1106;48.762;9.168;2022-09-25T01:37:56;13.40;97.60
2200;DHT22;1106;48.762;9.168;2022-09-25T01:40:26;13.40;97.80
2200;DHT22;1106;48.762;9.168;2022-09-25T01:42:58;13.50;97.70
2200;DHT22;1106;48.762;9.168;2022-09-25T01:45:32;13.60;97.60
2200;DHT22;1106;48.762;9.168;2022-09-25T01:48:03;13.60;96.90
2200;DHT22;1106;48.762;9.168;2022-09-25T01:50:35;13.60;96.80
2200;DHT22;1106;48.762;9.168;2022-09-25T01:53:08;13.50;97.20
2200;DHT22;1106;48.762;9.168;2022-09-25T01:55:40;13.60;97.40
2200;DHT22;1106;48.762;9.168;2022-09-25T01:58:12;13.60;97.50
2200;DHT22;1106;48.762;9.168;2022-09-25T02:00:44;13.60;97.30
2200;DHT22;1106;48.762;9.168;2022-09-25T02:03:18;13.60;97.20
2200;DHT22;1106;48.762;9.168;2022-09-25T02:05:53;13.70;97.00
2200;DHT22;1106;48.762;9.168;2022-09-25T02:08:23;13.60;97.10
2200;DHT22;1106;48.762;9.168;2022-09-25T02:10:54;13.70;97.20
2200;DHT22;1106;48.762;9.168;2022-09-25T02:13:24;13.70;97.00
2200;DHT22;1106;48.762;9.168;2022-09-25T02:15:55;13.70;97.00
2200;DHT22;1106;48.762;9.168;2022-09-25T02:18:23;13.70;96.80
2200;DHT22;1106;48.762;9.168;2022-09-25T02:21:13;13.70;96.80
2200;DHT22;1106;48.762;9.168;2022-09-25T02:23:48;13.70;96.60
2200;DHT22;1106;48.762;9.168;2022-09-25T02:26:23;13.80;96.60
2200;DHT22;1106;48.762;9.168;2022-09-25T02:28:51;13.80;96.40
2200;DHT22;1106;48.762;9.168;2022-09-25T02:31:22;13.80;96.20
2200;DHT22;1106;48.762;9.168;2022-09-25T02:33:50;13.70;96.20
2200;DHT22;1106;48.762;9.168;2022-09-25T02:36:19;13.80;96.10
2200;DHT22;1106;48.762;9.168;2022-09-25T02:38:47;13.80;95.90
2200;DHT22;1106;48.762;9.168;2022-09-25T02:41:21;13.80;95.90
2200;DHT22;1106;48.762;9.168;2022-09-25T02:43:57;13.80;96.00
2200;DHT22;1106;48.762;9.168;2022-09-25T02:46:38;13.80;96.00
2200;DHT22;1106;48.762;9.168;2022-09-25T02:49:15;13.70;96.10
2200;DHT22;1106;48.762;9.168;2022-09-25T02:51:48;13.70;96.30
2200;DHT22;1106;48.762;9.168;2022-09-25T02:54:21;13.70;96.40
2200;DHT22;1106;48.762;9.168;2022-09-25T02:56:55;13.70;96.70
2200;DHT22;1106;48.762;9.168;2022-09-25T02:59:28;13.60;96.90
2200;DHT22;1106;48.762;9.168;2022-09-25T03:01:59;13.70;96.70
2200;DHT22;1106;48.762;9.168;2022-09-25T03:04:27;13.70;96.40
2200;DHT22;1106;48.762;9.168;2022-09-25T03:06:55;13.70;96.40
2200;DHT22;1106;48.762;9.168;2022-09-25T03:09:24;13.70;96.40
2200;DHT22;1106;48.762;9.168;2022-09-25T03:11:51;13.70;96.30
2200;DHT22;1106;48.762;9.168;2022-09-25T03:14:19;13.70;96.30
2200;DHT22;1106;48.762;9.168;2022-09-25T03:16:48;13.70;96.40
2200;DHT22;1106;48.762;9.168;2022-09-25T03:19:17;13.70;96.70
2200;DHT22;1106;48.762;9.168;2022-09-25T03:21:45;13.70;96.60
2200;DHT22;1106;48.762;9.168;2022-09-25T03:24:12;13.70;96.70
2200;DHT22;1106;48.762;9.168;2022-09-25T03:26:39;13.80;96.50
2200;DHT22;1106;48.762;9.168;2022-09-25T03:29:06;13.80;96.30
2200;DHT22;1106;48.762;9.168;2022-09-25T03:31:33;13.80;96.10
2200;DHT22;1106;48.762;9.168;2022-09-25T03:34:01;13.80;96.00
2200;DHT22;1106;48.762;9.168;2022-09-25T03:36:30;13.70;96.10
2200;DHT22;1106;48.762;9.168;2022-09-25T03:38:58;13.70;96.50
2200;DHT22;1106;48.762;9.168;2022-09-25T03:41:26;13.60;96.60
2200;DHT22;1106;48.762;9.168;2022-09-25T03:43:54;13.60;96.90
2200;DHT22;1106;48.762;9.168;2022-09-25T03:46:23;13.60;96.90
2200;DHT22;1106;48.762;9.168;2022-09-25T03:48:50;13.70;96.80
2200;DHT22;1106;48.762;9.168;2022-09-25T03:51:18;13.70;96.70
2200;DHT22;1106;48.762;9.168;2022-09-25T03:53:47;13.60;96.80
2200;DHT22;1106;48.762;9.168;2022-09-25T03:56:16;13.60;96.80
2200;DHT22;1106;48.762;9.168;2022-09-25T03:58:43;13.60;96.80
2200;DHT22;1106;48.762;9.168;2022-09-25T04:01:10;13.60;96.90
2200;DHT22;1106;48.762;9.168;2022-09-25T04:03:38;13.70;96.60
2200;DHT22;1106;48.762;9.168;2022-09-25T04:06:06;13.70;96.50
2200;DHT22;1106;48.762;9.168;2022-09-25T04:08:35;13.70;96.40
2200;DHT22;1106;48.762;9.168;2022-09-25T04:11:04;13.70;96.40
2200;DHT22;1106;48.762;9.168;2022-09-25T04:13:34;13.70;96.50
2200;DHT22;1106;48.762;9.168;2022-09-25T04:16:03;13.80;96.50
2200;DHT22;1106;48.762;9.168;2022-09-25T04:18:31;13.70;96.60
2200;DHT22;1106;48.762;9.168;2022-09-25T04:20:58;13.80;96.70
2200;DHT22;1106;48.762;9.168;2022-09-25T04:23:25;13.70;96.70
2200;DHT22;1106;48.762;9.168;2022-09-25T04:25:52;13.70;96.70
2200;DHT22;1106;48.762;9.168;2022-09-25T04:28:20;13.70;96.70
2200;DHT22;1106;48.762;9.168;2022-09-25T04:30:48;13.80;96.60
2200;DHT22;1106;48.762;9.168;2022-09-25T04:33:16;13.80;96.50
2200;DHT22;1106;48.762;9.168;2022-09-25T04:36:01;13.80;96.60
2200;DHT22;1106;48.762;9.168;2022-09-25T04:38:29;13.80;96.70
2200;DHT22;1106;48.762;9.168;2022-09-25T04:40:57;13.70;96.70
2200;DHT22;1106;48.762;9.168;2022-09-25T04:43:26;13.70;96.80
2200;DHT22;1106;48.762;9.168;2022-09-25T04:45:53;13.70;96.90
2200;DHT22;1106;48.762;9.168;2022-09-25T04:48:20;13.80;96.90
2200;DHT22;1106;48.762;9.168;2022-09-25T04:50:48;13.80;96.90
2200;DHT22;1106;48.762;9.168;2022-09-25T04:53:16;13.70;96.90
2200;DHT22;1106;48.762;9.168;2022-09-25T04:55:43;13.80;97.00
2200;DHT22;1106;48.762;9.168;2022-09-25T04:58:11;13.70;96.90
2200;DHT22;1106;48.762;9.168;2022-09-25T05:00:40;13.70;96.90
2200;DHT22;1106;48.762;9.168;2022-09-25T05:03:07;13.70;96.90
2200;DHT22;1106;48.762;9.168;2022-09-25T05:05:34;13.70;97.00
2200;DHT22;1106;48.762;9.168;2022-09-25T05:08:02;13.70;97.00
2200;DHT22;1106;48.762;9.168;2022-09-25T05:10:32;13.70;97.10
2200;DHT22;1106;48.762;9.168;2022-09-25T05:13:00;13.80;97.10
2200;DHT22;1106;48.762;9.168;2022-09-25T05:15:29;13.70;96.90
2200;DHT22;1106;48.762;9.168;2022-09-25T05:18:02;13.80;97.00
2200;DHT22;1106;48.762;9.168;2022-09-25T05:20:29;13.80;96.90
2200;DHT22;1106;48.762;9.168;2022-09-25T05:22:57;13.80;96.90
2200;DHT22;1106;48.762;9.168;2022-09-25T05:25:25;13.80;96.80
2200;DHT22;1106;48.762;9.168;2022-09-25T05:27:52;13.90;96.60
2200;DHT22;1106;48.762;9.168;2022-09-25T05:30:22;13.90;96.50
2200;DHT22;1106;48.762;9.168;2022-09-25T05:32:50;13.90;96.30
2200;DHT22;1106;48.762;9.168;2022-09-25T05:35:20;14.00;96.20
2200;DHT22;1106;48.762;9.168;2022-09-25T05:37:47;13.90;96.10
2200;DHT22;1106;48.762;9.168;2022-09-25T05:40:15;14.00;96.10
2200;DHT22;1106;48.762;9.168;2022-09-25T05:42:43;14.00;96.00
2200;DHT22;1106;48.762;9.168;2022-09-25T05:45:10;14.10;95.90
2200;DHT22;1106;48.762;9.168;2022-09-25T05:47:37;14.10;95.90
2200;DHT22;1106;48.762;9.168;2022-09-25T05:50:05;14.10;95.90
2200;DHT22;1106;48.762;9.168;2022-09-25T05:52:33;14.10;95.80
2200;DHT22;1106;48.762;9.168;2022-09-25T05:55:00;14.20;95.50
2200;DHT22;1106;48.762;9.168;2022-09-25T05:57:29;14.20;95.40
2200;DHT22;1106;48.762;9.168;2022-09-25T05:59:56;14.20;95.40
2200;DHT22;1106;48.762;9.168;2022-09-25T06:02:24;14.20;95.40
2200;DHT22;1106;48.762;9.168;2022-09-25T06:04:51;14.10;95.80
2200;DHT22;1106;48.762;9.168;2022-09-25T06:07:18;14.10;95.80
2200;DHT22;1106;48.762;9.168;2022-09-25T06:09:46;14.20;95.70
2200;DHT22;1106;48.762;9.168;2022-09-25T06:12:13;14.30;95.50
2200;DHT22;1106;48.762;9.168;2022-09-25T06:14:40;14.30;95.30
2200;DHT22;1106;48.762;9.168;2022-09-25T06:17:07;14.40;95.10
2200;DHT22;1106;48.762;9.168;2022-09-25T06:19:34;14.50;94.80
2200;DHT22;1106;48.762;9.168;2022-09-25T06:22:01;14.50;94.40
2200;DHT22;1106;48.762;9.168;2022-09-25T06:24:28;14.50;94.40
2200;DHT22;1106;48.762;9.168;2022-09-25T06:26:56;14.50;94.30
2200;DHT22;1106;48.762;9.168;2022-09-25T06:29:23;14.50;94.00
2200;DHT22;1106;48.762;9.168;2022-09-25T06:31:50;14.50;94.00
2200;DHT22;1106;48.762;9.168;2022-09-25T06:34:17;14.50;93.10
2200;DHT22;1106;48.762;9.168;2022-09-25T06:36:44;14.60;93.00
2200;DHT22;1106;48.762;9.168;2022-09-25T06:39:11;14.70;92.80
2200;DHT22;1106;48.762;9.168;2022-09-25T06:41:38;14.70;92.60
2200;DHT22;1106;48.762;9.168;2022-09-25T06:44:07;14.60;92.80
2200;DHT22;1106;48.762;9.168;2022-09-25T06:46:34;14.70;92.70
2200;DHT22;1106;48.762;9.168;2022-09-25T06:49:01;14.80;92.40
2200;DHT22;1106;48.762;9.168;2022-09-25T06:51:33;14.80;92.50
2200;DHT22;1106;48.762;9.168;2022-09-25T06:54:00;14.90;92.30
2200;DHT22;1106;48.762;9.168;2022-09-25T06:56:27;14.90;91.90
2200;DHT22;1106;48.762;9.168;2022-09-25T06:58:55;15.00;91.90
2200;DHT22;1106;48.762;9.168;2022-09-25T07:01:23;15.00;91.70
2200;DHT22;1106;48.762;9.168;2022-09-25T07:03:50;15.00;91.70
2200;DHT22;1106;48.762;9.168;2022-09-25T07:06:19;15.00;91.50
2200;DHT22;1106;48.762;9.168;2022-09-25T07:08:47;15.00;91.70
2200;DHT22;1106;48.762;9.168;2022-09-25T07:11:17;15.10;91.70
2200;DHT22;1106;48.762;9.168;2022-09-25T07:13:44;15.10;91.80
2200;DHT22;1106;48.762;9.168;2022-09-25T07:16:13;15.10;91.60
2200;DHT22;1106;48.762;9.168;2022-09-25T07:18:41;15.30;91.30
2200;DHT22;1106;48.762;9.168;2022-09-25T07:21:11;15.40;90.80
2200;DHT22;1106;48.762;9.168;2022-09-25T07:23:38;15.40;90.40
2200;DHT22;1106;48.762;9.168;2022-09-25T07:26:07;15.40;90.10
2200;DHT22;1106;48.762;9.168;2022-09-25T07:28:35;15.50;89.90
2200;DHT22;1106;48.762;9.168;2022-09-25T07:31:13;15.50;89.30
2200;DHT22;1106;48.762;9.168;2022-09-25T07:33:43;15.60;89.20
2200;DHT22;1106;48.762;9.168;2022-09-25T07:36:10;15.60;89.20
2200;DHT22;1106;48.762;9.168;2022-09-25T07:38:37;15.80;88.90
2200;DHT22;1106;48.762;9.168;2022-09-25T07:41:09;15.80;88.60
2200;DHT22;1106;48.762;9.168;2022-09-25T07:43:37;15.80;88.30
2200;DHT22;1106;48.762;9.168;2022-09-25T07:46:04;15.90;87.80
2200;DHT22;1106;48.762;9.168;2022-09-25T07:48:31;15.90;87.60
2200;DHT22;1106;48.762;9.168;2022-09-25T07:51:00;16.10;87.30
2200;DHT22;1106;48.762;9.168;2022-09-25T07:53:27;16.10;87.30
2200;DHT22;1106;48.762;9.168;2022-09-25T07:55:57;16.10;87.20
2200;DHT22;1106;48.762;9.168;2022-09-25T07:58:24;16.20;87.00
2200;DHT22;1106;48.762;9.168;2022-09-25T08:00:52;16.20;86.20
2200;DHT22;1106;48.762;9.168;2022-09-25T08:03:19;16.30;86.00
2200;DHT22;1106;48.762;9.168;2022-09-25T08:05:46;16.30;85.90
2200;DHT22;1106;48.762;9.168;2022-09-25T08:08:14;16.20;85.60
2200;DHT22;1106;48.762;9.168;2022-09-25T08:10:41;16.30;85.30
2200;DHT22;1106;48.762;9.168;2022-09-25T08:13:08;16.20;85.50
2200;DHT22;1106;48.762;9.168;2022-09-25T08:15:35;16.20;85.50
2200;DHT22;1106;48.762;9.168;2022-09-25T08:18:02;16.30;85.50
2200;DHT22;1106;48.762;9.168;2022-09-25T08:20:29;16.40;85.00
2200;DHT22;1106;48.762;9.168;2022-09-25T08:22:56;16.50;84.90
2200;DHT22;1106;48.762;9.168;2022-09-25T08:25:25;16.60;84.40
2200;DHT22;1106;48.762;9.168;2022-09-25T08:27:52;16.60;83.70
2200;DHT22;1106;48.762;9.168;2022-09-25T08:30:19;16.60;83.80
2200;DHT22;1106;48.762;9.168;2022-09-25T08:32:45;16.60;84.00
2200;DHT22;1106;48.762;9.168;2022-09-25T08:35:12;16.60;84.20
2200;DHT22;1106;48.762;9.168;2022-09-25T08:37:40;16.60;84.00
2200;DHT22;1106;48.762;9.168;2022-09-25T08:40:15;16.60;84.00
2200;DHT22;1106;48.762;9.168;2022-09-25T08:42:47;16.80;83.00
2200;DHT22;1106;48.762;9.168;2022-09-25T08:45:27;16.90;82.90
2200;DHT22;1106;48.762;9.168;2022-09-25T08:48:19;17.00;82.70
2200;DHT22;1106;48.762;9.168;2022-09-25T08:51:05;17.30;81.50
2200;DHT22;1106;48.762;9.168;2022-09-25T08:53:33;17.50;81.10
2200;DHT22;1106;48.762;9.168;2022-09-25T08:56:02;17.60;81.10
2200;DHT22;1106;48.762;9.168;2022-09-25T08:58:53;17.60;80.40
2200;DHT22;1106;48.762;9.168;2022-09-25T09:01:24;17.60;79.20
2200;DHT22;1106;48.762;9.168;2022-09-25T09:03:55;17.60;79.20
2200;DHT22;1106;48.762;9.168;2022-09-25T09:06:24;17.50;78.20
2200;DHT22;1106;48.762;9.168;2022-09-25T09:08:56;17.40;78.90
2200;DHT22;1106;48.762;9.168;2022-09-25T09:11:27;17.40;79.20
2200;DHT22;1106;48.762;9.168;2022-09-25T09:14:01;17.50;79.20
2200;DHT22;1106;48.762;9.168;2022-09-25T09:16:33;17.70;79.20
2200;DHT22;1106;48.762;9.168;2022-09-25T09:19:02;17.80;78.90
2200;DHT22;1106;48.762;9.168;2022-09-25T09:21:33;17.90;78.30
2200;DHT22;1106;48.762;9.168;2022-09-25T09:24:06;18.10;77.00
2200;DHT22;1106;48.762;9.168;2022-09-25T09:26:45;18.20;75.70
2200;DHT22;1106;48.762;9.168;2022-09-25T09:29:27;18.20;74.50
2200;DHT22;1106;48.762;9.168;2022-09-25T09:32:05;18.20;74.10
2200;DHT22;1106;48.762;9.168;2022-09-25T09:34:53;17.90;74.30
2200;DHT22;1106;48.762;9.168;2022-09-25T09:37:28;17.80;74.70
2200;DHT22;1106;48.762;9.168;2022-09-25T09:40:10;17.50;75.40
2200;DHT22;1106;48.762;9.168;2022-09-25T09:42:45;17.40;76.00
2200;DHT22;1106;48.762;9.168;2022-09-25T09:45:20;17.50;76.40
2200;DHT22;1106;48.762;9.168;2022-09-25T09:47:53;17.50;76.20
2200;DHT22;1106;48.762;9.168;2022-09-25T09:50:29;17.40;75.20
2200;DHT22;1106;48.762;9.168;2022-09-25T09:53:03;17.20;76.30
2200;DHT22;1106;48.762;9.168;2022-09-25T09:55:36;17.30;77.00
2200;DHT22;1106;48.762;9.168;2022-09-25T09:58:10;17.50;75.80
2200;DHT22;1106;48.762;9.168;2022-09-25T10:00:40;17.50;75.20
2200;DHT22;1106;48.762;9.168;2022-09-25T10:03:12;17.40;75.10
2200;DHT22;1106;48.762;9.168;2022-09-25T10:05:42;17.30;75.60
2200;DHT22;1106;48.762;9.168;2022-09-25T10:08:11;17.20;75.90
2200;DHT22;1106;48.762;9.168;2022-09-25T10:10:40;17.20;75.90
2200;DHT22;1106;48.762;9.168;2022-09-25T10:13:14;17.20;74.90
2200;DHT22;1106;48.762;9.168;2022-09-25T10:15:46;17.30;75.60
2200;DHT22;1106;48.762;9.168;2022-09-25T10:18:16;17.30;75.50
2200;DHT22;1106;48.762;9.168;2022-09-25T10:20:46;17.30;75.50
2200;DHT22;1106;48.762;9.168;2022-09-25T10:23:32;17.50;74.90
2200;DHT22;1106;48.762;9.168;2022-09-25T10:26:00;17.80;73.70
2200;DHT22;1106;48.762;9.168;2022-09-25T10:28:30;18.10;73.60
2200;DHT22;1106;48.762;9.168;2022-09-25T10:31:00;18.20;73.10
2200;DHT22;1106;48.762;9.168;2022-09-25T10:33:31;18.40;73.30
2200;DHT22;1106;48.762;9.168;2022-09-25T10:36:00;18.30;73.20
2200;DHT22;1106;48.762;9.168;2022-09-25T10:38:33;18.10;74.20
2200;DHT22;1106;48.762;9.168;2022-09-25T10:41:05;17.80;74.60
2200;DHT22;1106;48.762;9.168;2022-09-25T10:43:33;17.80;75.10
2200;DHT22;1106;48.762;9.168;2022-09-25T10:46:11;17.50;76.00
2200;DHT22;1106;48.762;9.168;2022-09-25T10:48:39;17.30;76.90
2200;DHT22;1106;48.762;9.168;2022-09-25T10:51:24;17.00;77.90
2200;DHT22;1106;48.762;9.168;2022-09-25T10:54:08;16.80;79.20
2200;DHT22;1106;48.762;9.168;2022-09-25T10:56:36;16.60;79.80
2200;DHT22;1106;48.762;9.168;2022-09-25T10:59:08;16.20;81.30
2200;DHT22;1106;48.762;9.168;2022-09-25T11:01:41;16.00;82.40
2200;DHT22;1106;48.762;9.168;2022-09-25T11:04:13;15.80;82.50
2200;DHT22;1106;48.762;9.168;2022-09-25T11:06:44;15.80;83.60
2200;DHT22;1106;48.762;9.168;2022-09-25T11:09:13;15.80;83.20
2200;DHT22;1106;48.762;9.168;2022-09-25T11:11:43;15.70;82.30
2200;DHT22;1106;48.762;9.168;2022-09-25T11:14:20;15.50;83.20
2200;DHT22;1106;48.762;9.168;2022-09-25T11:16:54;15.40;83.70
2200;DHT22;1106;48.762;9.168;2022-09-25T11:19:27;15.40;84.20
2200;DHT22;1106;48.762;9.168;2022-09-25T11:22:02;15.50;83.70
2200;DHT22;1106;48.762;9.168;2022-09-25T11:24:41;15.40;84.40
2200;DHT22;1106;48.762;9.168;2022-09-25T11:27:15;15.40;84.90
2200;DHT22;1106;48.762;9.168;2022-09-25T11:29:49;15.50;84.70
2200;DHT22;1106;48.762;9.168;2022-09-25T11:32:24;15.70;84.40
2200;DHT22;1106;48.762;9.168;2022-09-25T11:35:14;15.80;84.10
2200;DHT22;1106;48.762;9.168;2022-09-25T11:37:53;16.00;84.10
2200;DHT22;1106;48.762;9.168;2022-09-25T11:40:31;16.20;84.00
2200;DHT22;1106;48.762;9.168;2022-09-25T11:43:23;16.30;83.30
2200;DHT22;1106;48.762;9.168;2022-09-25T11:45:54;16.40;82.70
2200;DHT22;1106;48.762;9.168;2022-09-25T11:48:37;16.50;81.80
2200;DHT22;1106;48.762;9.168;2022-09-25T11:51:17;16.50;81.60
2200;DHT22;1106;48.762;9.168;2022-09-25T11:53:55;16.40;81.50
2200;DHT22;1106;48.762;9.168;2022-09-25T11:56:29;16.50;80.70
2200;DHT22;1106;48.762;9.168;2022-09-25T11:59:10;16.60;80.60
2200;DHT22;1106;48.762;9.168;2022-09-25T12:01:44;16.80;80.30
2200;DHT22;1106;48.762;9.168;2022-09-25T12:04:42;16.90;79.90
2200;DHT22;1106;48.762;9.168;2022-09-25T12:07:20;17.10;79.40
2200;DHT22;1106;48.762;9.168;2022-09-25T12:10:01;17.10;79.00
2200;DHT22;1106;48.762;9.168;2022-09-25T12:12:37;17.30;79.10
2200;DHT22;1106;48.762;9.168;2022-09-25T12:15:14;17.40;78.70
2200;DHT22;1106;48.762;9.168;2022-09-25T12:17:50;17.60;78.00
2200;DHT22;1106;48.762;9.168;2022-09-25T12:20:26;17.70;76.70
2200;DHT22;1106;48.762;9.168;2022-09-25T12:23:06;17.90;76.30
2200;DHT22;1106;48.762;9.168;2022-09-25T12:25:47;18.10;75.70
2200;DHT22;1106;48.762;9.168;2022-09-25T12:28:28;18.20;75.60
2200;DHT22;1106;48.762;9.168;2022-09-25T12:31:05;18.40;74.40
2200;DHT22;1106;48.762;9.168;2022-09-25T12:33:39;18.60;74.20
2200;DHT22;1106;48.762;9.168;2022-09-25T12:36:13;18.90;73.50
2200;DHT22;1106;48.762;9.168;2022-09-25T12:38:46;19.10;73.00
2200;DHT22;1106;48.762;9.168;2022-09-25T12:41:17;19.20;72.00
2200;DHT22;1106;48.762;9.168;2022-09-25T12:43:50;19.20;71.80
2200;DHT22;1106;48.762;9.168;2022-09-25T12:46:24;19.40;71.40
2200;DHT22;1106;48.762;9.168;2022-09-25T12:49:01;19.60;70.60
2200;DHT22;1106;48.762;9.168;2022-09-25T12:51:39;19.80;69.70
2200;DHT22;1106;48.762;9.168;2022-09-25T12:54:14;20.00;69.80
2200;DHT22;1106;48.762;9.168;2022-09-25T12:56:51;19.80;67.10
2200;DHT22;1106;48.762;9.168;2022-09-25T12:59:26;19.40;67.30
2200;DHT22;1106;48.762;9.168;2022-09-25T13:02:01;19.00;68.80
2200;DHT22;1106;48.762;9.168;2022-09-25T13:04:41;18.80;69.80
2200;DHT22;1106;48.762;9.168;2022-09-25T13:07:14;18.90;70.40
2200;DHT22;1106;48.762;9.168;2022-09-25T13:09:44;18.60;70.20
2200;DHT22;1106;48.762;9.168;2022-09-25T13:12:18;18.00;72.40
2200;DHT22;1106;48.762;9.168;2022-09-25T13:14:49;17.60;74.00
2200;DHT22;1106;48.762;9.168;2022-09-25T13:17:18;17.60;74.30
2200;DHT22;1106;48.762;9.168;2022-09-25T13:19:46;17.60;73.90
2200;DHT22;1106;48.762;9.168;2022-09-25T13:22:18;17.60;74.10
2200;DHT22;1106;48.762;9.168;2022-09-25T13:24:49;17.50;75.00
2200;DHT22;1106;48.762;9.168;2022-09-25T13:27:18;17.60;75.00
2200;DHT22;1106;48.762;9.168;2022-09-25T13:29:52;17.40;75.80
2200;DHT22;1106;48.762;9.168;2022-09-25T13:32:23;17.40;76.20
2200;DHT22;1106;48.762;9.168;2022-09-25T13:34:55;17.20;76.40
2200;DHT22;1106;48.762;9.168;2022-09-25T13:37:27;17.20;75.60
2200;DHT22;1106;48.762;9.168;2022-09-25T13:39:56;17.30;75.60
2200;DHT22;1106;48.762;9.168;2022-09-25T13:42:43;17.40;75.20
2200;DHT22;1106;48.762;9.168;2022-09-25T13:45:29;17.80;74.30
2200;DHT22;1106;48.762;9.168;2022-09-25T13:48:00;17.60;74.20
2200;DHT22;1106;48.762;9.168;2022-09-25T13:50:35;17.50;75.00
2200;DHT22;1106;48.762;9.168;2022-09-25T13:53:31;17.40;74.70
2200;DHT22;1106;48.762;9.168;2022-09-25T13:56:23;17.30;74.70
2200;DHT22;1106;48.762;9.168;2022-09-25T13:59:19;17.30;74.50
2200;DHT22;1106;48.762;9.168;2022-09-25T14:01:48;17.00;75.50
2200;DHT22;1106;48.762;9.168;2022-09-25T14:04:33;16.80;76.20
2200;DHT22;1106;48.762;9.168;2022-09-25T14:07:19;16.70;76.40
2200;DHT22;1106;48.762;9.168;2022-09-25T14:09:51;16.60;77.10
2200;DHT22;1106;48.762;9.168;2022-09-25T14:12:31;16.80;76.50
2200;DHT22;1106;48.762;9.168;2022-09-25T14:15:03;16.90;76.20
2200;DHT22;1106;48.762;9.168;2022-09-25T14:17:34;17.10;74.30
2200;DHT22;1106;48.762;9.168;2022-09-25T14:20:05;16.90;75.20
2200;DHT22;1106;48.762;9.168;2022-09-25T14:22:38;16.80;74.00
2200;DHT22;1106;48.762;9.168;2022-09-25T14:25:28;17.00;74.40
2200;DHT22;1106;48.762;9.168;2022-09-25T14:27:57;17.00;72.60
2200;DHT22;1106;48.762;9.168;2022-09-25T14:30:25;16.90;73.50
2200;DHT22;1106;48.762;9.168;2022-09-25T14:35:52;17.00;74.20
2200;DHT22;1106;48.762;9.168;2022-09-25T14:38:44;17.00;73.00
2200;DHT22;1106;48.762;9.168;2022-09-25T14:44:39;17.40;72.70
2200;DHT22;1106;48.762;9.168;2022-09-25T14:47:10;17.50;72.00
2200;DHT22;1106;48.762;9.168;2022-09-25T14:49:41;17.40;72.30
2200;DHT22;1106;48.762;9.168;2022-09-25T14:52:12;17.40;72.60
2200;DHT22;1106;48.762;9.168;2022-09-25T14:54:43;17.60;72.10
2200;DHT22;1106;48.762;9.168;2022-09-25T14:57:15;17.70;72.30
2200;DHT22;1106;48.762;9.168;2022-09-25T14:59:46;17.80;71.90
2200;DHT22;1106;48.762;9.168;2022-09-25T15:02:19;17.70;72.30
2200;DHT22;1106;48.762;9.168;2022-09-25T15:04:47;17.60;72.60
2200;DHT22;1106;48.762;9.168;2022-09-25T15:07:17;17.40;73.20
2200;DHT22;1106;48.762;9.168;2022-09-25T15:09:46;17.50;73.10
2200;DHT22;1106;48.762;9.168;2022-09-25T15:12:20;17.50;71.90
2200;DHT22;1106;48.762;9.168;2022-09-25T15:14:57;17.10;72.00
2200;DHT22;1106;48.762;9.168;2022-09-25T15:17:25;16.90;73.10
2200;DHT22;1106;48.762;9.168;2022-09-25T15:19:54;16.90;73.00
2200;DHT22;1106;48.762;9.168;2022-09-25T15:22:27;16.90;72.90
2200;DHT22;1106;48.762;9.168;2022-09-25T15:24:57;16.90;74.50
2200;DHT22;1106;48.762;9.168;2022-09-25T15:27:27;17.00;73.20
2200;DHT22;1106;48.762;9.168;2022-09-25T15:29:57;16.80;73.80
2200;DHT22;1106;48.762;9.168;2022-09-25T15:32:36;16.80;74.00
2200;DHT22;1106;48.762;9.168;2022-09-25T15:35:07;16.70;74.60
2200;DHT22;1106;48.762;9.168;2022-09-25T15:37:40;16.80;74.70
2200;DHT22;1106;48.762;9.168;2022-09-25T15:40:19;16.70;75.10
2200;DHT22;1106;48.762;9.168;2022-09-25T15:42:54;16.80;75.00
2200;DHT22;1106;48.762;9.168;2022-09-25T15:45:38;16.70;75.00
2200;DHT22;1106;48.762;9.168;2022-09-25T15:48:20;16.30;76.90
2200;DHT22;1106;48.762;9.168;2022-09-25T15:50:51;16.30;77.30
2200;DHT22;1106;48.762;9.168;2022-09-25T15:53:34;16.30;77.20
2200;DHT22;1106;48.762;9.168;2022-09-25T15:56:20;16.40;77.20
2200;DHT22;1106;48.762;9.168;2022-09-25T15:58:55;16.60;76.80
2200;DHT22;1106;48.762;9.168;2022-09-25T16:01:26;16.50;76.90
2200;DHT22;1106;48.762;9.168;2022-09-25T16:04:28;16.50;77.20
2200;DHT22;1106;48.762;9.168;2022-09-25T16:07:23;16.40;77.60
2200;DHT22;1106;48.762;9.168;2022-09-25T16:09:54;16.40;77.60
2200;DHT22;1106;48.762;9.168;2022-09-25T16:12:48;16.40;77.60
2200;DHT22;1106;48.762;9.168;2022-09-25T16:15:44;16.50;77.50
2200;DHT22;1106;48.762;9.168;2022-09-25T16:18:30;16.40;77.60
2200;DHT22;1106;48.762;9.168;2022-09-25T16:21:14;16.20;78.10
2200;DHT22;1106;48.762;9.168;2022-09-25T16:23:53;16.20;78.70
2200;DHT22;1106;48.762;9.168;2022-09-25T16:26:26;16.00;79.30
2200;DHT22;1106;48.762;9.168;2022-09-25T16:29:02;16.00;79.40
2200;DHT22;1106;48.762;9.168;2022-09-25T16:31:40;16.00;79.40
2200;DHT22;1106;48.762;9.168;2022-09-25T16:34:20;15.70;80.30
2200;DHT22;1106;48.762;9.168;2022-09-25T16:36:55;15.50;81.30
2200;DHT22;1106;48.762;9.168;2022-09-25T16:39:29;15.50;81.70
2200;DHT22;1106;48.762;9.168;2022-09-25T16:42:23;15.40;82.20